Avery, Idaho
Current Conditions -  °F | °C
As of 3:53 AM on Thursday 23 Oct 2014 (Local Time) from KMLP Reporting Station
Haze Haze  
Wind Chill: 30°   Ceiling: 500
Heat Index: 38°   Visibility: 3mi
Dew Point: 38°   Wind: 12mph
Humidity: 100%   Direction: 190°S
Pressure: 29.87"   Gusts: 26mph
Location:  47.25°N, 115.81°W
Report Text: KMLP 231053Z AUTO 19010G23KT 150V250 3SM BR OVC005 03/03 A2987 RMK AO2 RAE40 SLP066 P0002 T00330033
Loading
Personal Weather Stations






























Interactive Weather Map
Tropical Storm Tracking
New forecast layout! Learn more

10-Day Weather Forecast

Advertisements
Track Severe Weather on mobile